sensor_id;sensor_type;location;lat;lon;timestamp;pressure;altitude;pressure_sealevel;temperature;humidity
43745;BME280;29359;53.048;8.732;2023-03-25T00:00:41;100097.69;;;8.89;93.98
43745;BME280;29359;53.048;8.732;2023-03-25T00:02:47;100094.09;;;8.91;93.58
43745;BME280;29359;53.048;8.732;2023-03-25T00:04:53;100096.72;;;8.91;93.54
43745;BME280;29359;53.048;8.732;2023-03-25T00:06:55;100096.72;;;8.91;94.07
43745;BME280;29359;53.048;8.732;2023-03-25T00:08:57;100103.72;;;8.92;94.34
43745;BME280;29359;53.048;8.732;2023-03-25T00:10:59;100100.16;;;8.93;93.97
43745;BME280;29359;53.048;8.732;2023-03-25T00:13:01;100101.91;;;8.94;93.21
43745;BME280;29359;53.048;8.732;2023-03-25T00:15:07;100094.81;;;8.96;93.98
43745;BME280;29359;53.048;8.732;2023-03-25T00:17:08;100102.66;;;8.98;93.67
43745;BME280;29359;53.048;8.732;2023-03-25T00:19:11;100089.50;;;8.98;93.18
43745;BME280;29359;53.048;8.732;2023-03-25T00:21:13;100093.91;;;8.97;93.37
43745;BME280;29359;53.048;8.732;2023-03-25T00:23:18;100087.72;;;8.98;93.17
43745;BME280;29359;53.048;8.732;2023-03-25T00:25:20;100097.34;;;8.99;93.60
43745;BME280;29359;53.048;8.732;2023-03-25T00:27:22;100089.28;;;9.04;92.82
43745;BME280;29359;53.048;8.732;2023-03-25T00:29:23;100090.91;;;9.08;92.92
43745;BME280;29359;53.048;8.732;2023-03-25T00:31:25;100089.13;;;9.08;92.38
43745;BME280;29359;53.048;8.732;2023-03-25T00:33:28;100089.97;;;9.09;93.02
43745;BME280;29359;53.048;8.732;2023-03-25T00:35:29;100081.16;;;9.10;92.12
43745;BME280;29359;53.048;8.732;2023-03-25T00:37:31;100087.34;;;9.09;92.27
43745;BME280;29359;53.048;8.732;2023-03-25T00:39:32;100092.53;;;9.12;92.07
43745;BME280;29359;53.048;8.732;2023-03-25T00:41:34;100087.22;;;9.13;92.40
43745;BME280;29359;53.048;8.732;2023-03-25T00:43:38;100095.00;;;9.17;90.93
43745;BME280;29359;53.048;8.732;2023-03-25T00:45:39;100088.03;;;9.16;92.04
43745;BME280;29359;53.048;8.732;2023-03-25T00:47:41;100098.47;;;9.19;91.07
43745;BME280;29359;53.048;8.732;2023-03-25T00:49:43;100095.81;;;9.19;91.36
43745;BME280;29359;53.048;8.732;2023-03-25T00:51:45;100093.13;;;9.20;90.57
43745;BME280;29359;53.048;8.732;2023-03-25T00:53:55;100091.41;;;9.19;90.31
43745;BME280;29359;53.048;8.732;2023-03-25T00:55:57;100088.72;;;9.21;90.41
43745;BME280;29359;53.048;8.732;2023-03-25T00:57:58;100086.09;;;9.21;90.74
43745;BME280;29359;53.048;8.732;2023-03-25T01:00:00;100084.25;;;9.23;90.58
43745;BME280;29359;53.048;8.732;2023-03-25T01:02:02;100086.97;;;9.21;90.25
43745;BME280;29359;53.048;8.732;2023-03-25T01:04:07;100086.91;;;9.23;90.44
43745;BME280;29359;53.048;8.732;2023-03-25T01:06:14;100081.59;;;9.24;90.02
43745;BME280;29359;53.048;8.732;2023-03-25T01:08:16;100089.47;;;9.24;89.37
43745;BME280;29359;53.048;8.732;2023-03-25T01:10:18;100086.00;;;9.24;89.64
43745;BME280;29359;53.048;8.732;2023-03-25T01:12:19;100079.97;;;9.20;89.70
43745;BME280;29359;53.048;8.732;2023-03-25T01:14:22;100075.44;;;9.24;89.36
43745;BME280;29359;53.048;8.732;2023-03-25T01:16:29;100079.06;;;9.21;88.95
43745;BME280;29359;53.048;8.732;2023-03-25T01:18:31;100079.06;;;9.21;89.60
43745;BME280;29359;53.048;8.732;2023-03-25T01:20:35;100079.06;;;9.21;89.44
43745;BME280;29359;53.048;8.732;2023-03-25T01:22:36;100072.94;;;9.21;89.25
43745;BME280;29359;53.048;8.732;2023-03-25T01:24:38;100070.34;;;9.19;88.74
43745;BME280;29359;53.048;8.732;2023-03-25T01:26:40;100080.03;;;9.19;89.14
43745;BME280;29359;53.048;8.732;2023-03-25T01:28:44;100072.94;;;9.21;88.23
43745;BME280;29359;53.048;8.732;2023-03-25T01:30:45;100065.94;;;9.20;88.95
43745;BME280;29359;53.048;8.732;2023-03-25T01:32:47;100064.97;;;9.22;88.22
43745;BME280;29359;53.048;8.732;2023-03-25T01:34:48;100063.31;;;9.20;88.37
43745;BME280;29359;53.048;8.732;2023-03-25T01:36:50;100062.38;;;9.21;88.62
43745;BME280;29359;53.048;8.732;2023-03-25T01:38:57;100057.94;;;9.23;87.95
43745;BME280;29359;53.048;8.732;2023-03-25T01:40:59;100062.28;;;9.24;87.52
43745;BME280;29359;53.048;8.732;2023-03-25T01:43:01;100050.09;;;9.21;87.34
43745;BME280;29359;53.048;8.732;2023-03-25T01:45:16;100049.13;;;9.24;88.17
43745;BME280;29359;53.048;8.732;2023-03-25T01:47:19;100051.81;;;9.22;87.54
43745;BME280;29359;53.048;8.732;2023-03-25T01:51:35;100047.34;;;9.24;87.12
43745;BME280;29359;53.048;8.732;2023-03-25T01:53:37;100053.47;;;9.25;86.59
43745;BME280;29359;53.048;8.732;2023-03-25T01:55:39;100043.91;;;9.22;87.04
43745;BME280;29359;53.048;8.732;2023-03-25T01:57:42;100050.03;;;9.23;86.98
43745;BME280;29359;53.048;8.732;2023-03-25T01:59:47;100051.84;;;9.21;86.46
43745;BME280;29359;53.048;8.732;2023-03-25T02:01:51;100049.34;;;9.18;86.57
43745;BME280;29359;53.048;8.732;2023-03-25T02:03:54;100039.66;;;9.18;86.71
43745;BME280;29359;53.048;8.732;2023-03-25T02:06:08;100038.84;;;9.16;87.04
43745;BME280;29359;53.048;8.732;2023-03-25T02:08:11;100041.59;;;9.13;86.69
43745;BME280;29359;53.048;8.732;2023-03-25T02:10:17;100041.66;;;9.11;86.95
43745;BME280;29359;53.048;8.732;2023-03-25T02:12:18;100041.53;;;9.15;86.63
43745;BME280;29359;53.048;8.732;2023-03-25T02:14:23;100033.59;;;9.16;86.54
43745;BME280;29359;53.048;8.732;2023-03-25T02:16:37;100032.69;;;9.17;85.61
43745;BME280;29359;53.048;8.732;2023-03-25T02:28:32;100023.84;;;9.18;85.13
43745;BME280;29359;53.048;8.732;2023-03-25T02:43:10;100026.66;;;9.13;85.58
43745;BME280;29359;53.048;8.732;2023-03-25T02:45:22;100024.81;;;9.16;85.82
43745;BME280;29359;53.048;8.732;2023-03-25T02:47:30;100023.91;;;9.17;84.83
43745;BME280;29359;53.048;8.732;2023-03-25T02:49:55;100018.66;;;9.17;84.87
43745;BME280;29359;53.048;8.732;2023-03-25T02:52:16;100021.28;;;9.17;85.47
43745;BME280;29359;53.048;8.732;2023-03-25T02:54:23;100018.59;;;9.18;84.64
43745;BME280;29359;53.048;8.732;2023-03-25T02:56:25;100021.28;;;9.17;84.62
43745;BME280;29359;53.048;8.732;2023-03-25T02:58:30;100018.59;;;9.18;85.28
43745;BME280;29359;53.048;8.732;2023-03-25T03:00:33;100014.34;;;9.14;85.53
43745;BME280;29359;53.048;8.732;2023-03-25T03:02:38;100015.31;;;9.11;86.38
43745;BME280;29359;53.048;8.732;2023-03-25T03:04:49;100017.13;;;9.09;86.75
43745;BME280;29359;53.048;8.732;2023-03-25T03:06:54;100014.59;;;9.06;86.57
43745;BME280;29359;53.048;8.732;2023-03-25T03:11:28;100009.44;;;9.03;86.62
43745;BME280;29359;53.048;8.732;2023-03-25T03:20:27;100004.16;;;9.03;85.49
43745;BME280;29359;53.048;8.732;2023-03-25T03:23:27;100003.38;;;9.01;85.96
43745;BME280;29359;53.048;8.732;2023-03-25T03:25:19;100008.63;;;9.01;85.79
43745;BME280;29359;53.048;8.732;2023-03-25T03:27:37;100003.38;;;9.01;85.60
43745;BME280;29359;53.048;8.732;2023-03-25T03:29:49;99999.91;;;8.99;85.66
43745;BME280;29359;53.048;8.732;2023-03-25T03:32:12;99994.56;;;9.02;85.40
43745;BME280;29359;53.048;8.732;2023-03-25T03:34:25;99995.47;;;9.01;85.00
43745;BME280;29359;53.048;8.732;2023-03-25T03:36:31;99999.81;;;9.02;84.78
43745;BME280;29359;53.048;8.732;2023-03-25T03:38:57;100005.84;;;9.06;84.65
43745;BME280;29359;53.048;8.732;2023-03-25T03:41:07;100006.69;;;9.06;84.16
43745;BME280;29359;53.048;8.732;2023-03-25T03:43:15;100007.56;;;9.07;84.93
43745;BME280;29359;53.048;8.732;2023-03-25T03:45:20;100003.94;;;9.09;83.92
43745;BME280;29359;53.048;8.732;2023-03-25T03:47:29;100013.63;;;9.09;84.65
43745;BME280;29359;53.048;8.732;2023-03-25T03:49:38;100006.59;;;9.09;83.99
43745;BME280;29359;53.048;8.732;2023-03-25T03:51:48;100014.53;;;9.08;84.95
43745;BME280;29359;53.048;8.732;2023-03-25T03:54:06;100007.56;;;9.07;85.02
43745;BME280;29359;53.048;8.732;2023-03-25T03:56:18;100008.53;;;9.04;85.61
43745;BME280;29359;53.048;8.732;2023-03-25T03:58:27;100010.34;;;9.02;85.51
43745;BME280;29359;53.048;8.732;2023-03-25T04:01:05;100027.00;;;9.03;86.41
43745;BME280;29359;53.048;8.732;2023-03-25T04:03:20;100024.41;;;9.01;85.82
43745;BME280;29359;53.048;8.732;2023-03-25T04:05:26;100021.00;;;8.99;86.33
43745;BME280;29359;53.048;8.732;2023-03-25T04:07:43;100014.09;;;8.95;86.82
43745;BME280;29359;53.048;8.732;2023-03-25T04:10:14;100019.47;;;8.92;88.16
43745;BME280;29359;53.048;8.732;2023-03-25T04:12:21;100017.88;;;8.88;88.18
43745;BME280;29359;53.048;8.732;2023-03-25T04:14:24;100026.78;;;8.84;89.41
43745;BME280;29359;53.048;8.732;2023-03-25T04:16:26;100019.00;;;8.81;89.37
43745;BME280;29359;53.048;8.732;2023-03-25T04:18:28;100023.50;;;8.77;89.74
43745;BME280;29359;53.048;8.732;2023-03-25T04:20:34;100028.00;;;8.74;90.05
43745;BME280;29359;53.048;8.732;2023-03-25T04:22:37;100020.22;;;8.71;90.98
43745;BME280;29359;53.048;8.732;2023-03-25T04:24:38;100021.13;;;8.70;91.17
43745;BME280;29359;53.048;8.732;2023-03-25T04:26:42;100024.69;;;8.69;91.63
43745;BME280;29359;53.048;8.732;2023-03-25T04:28:44;100022.22;;;8.63;92.14
43745;BME280;29359;53.048;8.732;2023-03-25T04:30:45;100023.13;;;8.62;91.90
43745;BME280;29359;53.048;8.732;2023-03-25T04:32:48;100028.44;;;8.60;92.55
43745;BME280;29359;53.048;8.732;2023-03-25T04:34:53;100029.41;;;8.58;92.89
43745;BME280;29359;53.048;8.732;2023-03-25T04:36:57;100027.84;;;8.52;93.47
43745;BME280;29359;53.048;8.732;2023-03-25T04:38:59;100028.75;;;8.51;93.80
43745;BME280;29359;53.048;8.732;2023-03-25T04:41:01;100028.94;;;8.45;94.34
43745;BME280;29359;53.048;8.732;2023-03-25T04:43:07;100026.41;;;8.42;95.00
43745;BME280;29359;53.048;8.732;2023-03-25T04:45:09;100025.56;;;8.41;95.16
43745;BME280;29359;53.048;8.732;2023-03-25T04:47:17;100020.41;;;8.38;95.36
43745;BME280;29359;53.048;8.732;2023-03-25T04:49:22;100029.19;;;8.37;95.58
43745;BME280;29359;53.048;8.732;2023-03-25T04:51:23;100025.66;;;8.38;95.14
43745;BME280;29359;53.048;8.732;2023-03-25T04:53:26;100023.88;;;8.39;95.78
43745;BME280;29359;53.048;8.732;2023-03-25T04:55:28;100017.78;;;8.38;95.04
43745;BME280;29359;53.048;8.732;2023-03-25T04:57:30;100013.41;;;8.37;95.19
43745;BME280;29359;53.048;8.732;2023-03-25T04:59:31;100016.09;;;8.36;95.17
43745;BME280;29359;53.048;8.732;2023-03-25T05:01:34;100016.06;;;8.37;95.13
43745;BME280;29359;53.048;8.732;2023-03-25T05:03:38;100019.53;;;8.38;94.72
43745;BME280;29359;53.048;8.732;2023-03-25T05:05:40;100016.97;;;8.36;94.80
43745;BME280;29359;53.048;8.732;2023-03-25T05:07:43;100010.78;;;8.37;94.54
43745;BME280;29359;53.048;8.732;2023-03-25T05:09:45;100013.38;;;8.39;94.47
43745;BME280;29359;53.048;8.732;2023-03-25T05:11:48;100016.84;;;8.39;94.08
43745;BME280;29359;53.048;8.732;2023-03-25T05:13:49;100020.28;;;8.41;93.95
43745;BME280;29359;53.048;8.732;2023-03-25T05:15:51;100022.06;;;8.41;93.74
43745;BME280;29359;53.048;8.732;2023-03-25T05:17:53;100029.91;;;8.42;93.79
43745;BME280;29359;53.048;8.732;2023-03-25T05:19:54;100030.78;;;8.43;93.10
43745;BME280;29359;53.048;8.732;2023-03-25T05:21:57;100030.66;;;8.46;93.28
43745;BME280;29359;53.048;8.732;2023-03-25T05:23:58;100031.53;;;8.46;92.58
43745;BME280;29359;53.048;8.732;2023-03-25T05:26:02;100030.63;;;8.47;92.49
43745;BME280;29359;53.048;8.732;2023-03-25T05:28:04;100024.44;;;8.48;92.65
43745;BME280;29359;53.048;8.732;2023-03-25T05:30:06;100027.84;;;8.52;92.56
43745;BME280;29359;53.048;8.732;2023-03-25T05:32:08;100031.44;;;8.49;91.98
43745;BME280;29359;53.048;8.732;2023-03-25T05:34:10;100029.72;;;8.48;92.38
43745;BME280;29359;53.048;8.732;2023-03-25T05:36:12;100028.78;;;8.49;92.18
43745;BME280;29359;53.048;8.732;2023-03-25T05:38:14;100034.88;;;8.52;91.56
43745;BME280;29359;53.048;8.732;2023-03-25T05:40:19;100037.44;;;8.53;92.35
43745;BME280;29359;53.048;8.732;2023-03-25T05:42:22;100033.97;;;8.53;92.23
43745;BME280;29359;53.048;8.732;2023-03-25T05:44:24;100032.19;;;8.53;91.38
43745;BME280;29359;53.048;8.732;2023-03-25T05:46:27;100027.78;;;8.54;91.21
43745;BME280;29359;53.048;8.732;2023-03-25T05:48:31;100037.44;;;8.53;91.72
43745;BME280;29359;53.048;8.732;2023-03-25T05:50:35;100036.53;;;8.54;91.20
43745;BME280;29359;53.048;8.732;2023-03-25T05:52:37;100045.19;;;8.58;91.80
43745;BME280;29359;53.048;8.732;2023-03-25T05:54:43;100039.88;;;8.59;91.07
43745;BME280;29359;53.048;8.732;2023-03-25T05:56:45;100042.50;;;8.59;90.83
43745;BME280;29359;53.048;8.732;2023-03-25T05:58:48;100040.75;;;8.60;91.45
43745;BME280;29359;53.048;8.732;2023-03-25T06:00:50;100045.00;;;8.64;90.45
43745;BME280;29359;53.048;8.732;2023-03-25T06:02:52;100044.88;;;8.67;89.68
43745;BME280;29359;53.048;8.732;2023-03-25T06:04:53;100034.34;;;8.68;88.75
43745;BME280;29359;53.048;8.732;2023-03-25T06:06:55;100039.56;;;8.70;89.15
43745;BME280;29359;53.048;8.732;2023-03-25T06:08:57;100043.00;;;8.72;89.47
43745;BME280;29359;53.048;8.732;2023-03-25T06:10:59;100041.22;;;8.72;89.20
43745;BME280;29359;53.048;8.732;2023-03-25T06:13:01;100040.31;;;8.73;89.32
43745;BME280;29359;53.048;8.732;2023-03-25T06:15:06;100032.34;;;8.75;89.11
43745;BME280;29359;53.048;8.732;2023-03-25T06:17:08;100028.00;;;8.74;88.60
43745;BME280;29359;53.048;8.732;2023-03-25T06:19:11;100034.19;;;8.73;89.45
43745;BME280;29359;53.048;8.732;2023-03-25T06:21:12;100035.91;;;8.74;89.42
43745;BME280;29359;53.048;8.732;2023-03-25T06:23:14;100036.00;;;8.71;89.81
43745;BME280;29359;53.048;8.732;2023-03-25T06:25:18;100036.09;;;8.68;89.92
43745;BME280;29359;53.048;8.732;2023-03-25T06:27:20;100038.75;;;8.66;89.92
43745;BME280;29359;53.048;8.732;2023-03-25T06:29:22;100043.16;;;8.66;90.41
43745;BME280;29359;53.048;8.732;2023-03-25T06:31:25;100041.38;;;8.66;90.41
43745;BME280;29359;53.048;8.732;2023-03-25T06:33:28;100047.44;;;8.70;90.33
43745;BME280;29359;53.048;8.732;2023-03-25T06:35:46;100050.69;;;8.78;89.96
43745;BME280;29359;53.048;8.732;2023-03-25T06:37:53;100049.66;;;8.82;89.47
43745;BME280;29359;53.048;8.732;2023-03-25T06:39:55;100057.41;;;8.87;89.78
43745;BME280;29359;53.048;8.732;2023-03-25T06:41:57;100042.38;;;8.90;89.78
43745;BME280;29359;53.048;8.732;2023-03-25T06:43:59;100047.31;;;8.99;88.54
43745;BME280;29359;53.048;8.732;2023-03-25T06:46:01;100048.94;;;9.03;88.02
43745;BME280;29359;53.048;8.732;2023-03-25T06:48:02;100048.69;;;9.11;87.21
43745;BME280;29359;53.048;8.732;2023-03-25T06:50:06;100049.44;;;9.15;86.57
43745;BME280;29359;53.048;8.732;2023-03-25T06:52:08;100050.25;;;9.17;85.72
43745;BME280;29359;53.048;8.732;2023-03-25T06:54:09;100054.53;;;9.19;86.70
43745;BME280;29359;53.048;8.732;2023-03-25T06:56:11;100050.78;;;9.26;86.58
43745;BME280;29359;53.048;8.732;2023-03-25T06:58:12;100048.78;;;9.33;85.83
43745;BME280;29359;53.048;8.732;2023-03-25T07:00:14;100056.41;;;9.40;86.38
43745;BME280;29359;53.048;8.732;2023-03-25T07:02:20;100047.47;;;9.44;85.07
43745;BME280;29359;53.048;8.732;2023-03-25T07:04:22;100052.63;;;9.48;84.77
43745;BME280;29359;53.048;8.732;2023-03-25T07:06:23;100042.84;;;9.51;84.04
43745;BME280;29359;53.048;8.732;2023-03-25T07:08:25;100055.06;;;9.54;84.94
43745;BME280;29359;53.048;8.732;2023-03-25T07:10:26;100047.97;;;9.56;84.06
43745;BME280;29359;53.048;8.732;2023-03-25T07:12:28;100049.53;;;9.61;84.52
43745;BME280;29359;53.048;8.732;2023-03-25T07:14:30;100045.88;;;9.65;83.87
43745;BME280;29359;53.048;8.732;2023-03-25T07:16:31;100052.78;;;9.68;83.93
43745;BME280;29359;53.048;8.732;2023-03-25T07:18:33;100040.47;;;9.68;83.50
43745;BME280;29359;53.048;8.732;2023-03-25T07:20:34;100046.66;;;9.67;84.10
43745;BME280;29359;53.048;8.732;2023-03-25T07:22:36;100043.13;;;9.68;83.89
43745;BME280;29359;53.048;8.732;2023-03-25T07:24:37;100051.94;;;9.67;84.14
43745;BME280;29359;53.048;8.732;2023-03-25T07:26:39;100038.81;;;9.66;83.54
43745;BME280;29359;53.048;8.732;2023-03-25T07:28:40;100049.34;;;9.66;83.89
43745;BME280;29359;53.048;8.732;2023-03-25T07:30:42;100053.03;;;9.62;83.22
43745;BME280;29359;53.048;8.732;2023-03-25T07:32:44;100054.09;;;9.56;83.92
43745;BME280;29359;53.048;8.732;2023-03-25T07:34:46;100054.25;;;9.52;84.73
43745;BME280;29359;53.048;8.732;2023-03-25T07:36:47;100054.41;;;9.47;86.04
43745;BME280;29359;53.048;8.732;2023-03-25T07:38:49;100050.22;;;9.41;85.95
43745;BME280;29359;53.048;8.732;2023-03-25T07:40:50;100053.09;;;9.35;86.69
43745;BME280;29359;53.048;8.732;2023-03-25T07:42:52;100047.75;;;9.37;86.51
43745;BME280;29359;53.048;8.732;2023-03-25T07:44:53;100061.72;;;9.39;87.53
43745;BME280;29359;53.048;8.732;2023-03-25T07:46:55;100052.81;;;9.43;87.46
43745;BME280;29359;53.048;8.732;2023-03-25T07:48:56;100059.69;;;9.47;86.99
43745;BME280;29359;53.048;8.732;2023-03-25T07:50:58;100065.69;;;9.51;87.72
43745;BME280;29359;53.048;8.732;2023-03-25T07:52:59;100089.34;;;9.52;87.47
43745;BME280;29359;53.048;8.732;2023-03-25T07:55:01;100073.78;;;9.46;86.48
43745;BME280;29359;53.048;8.732;2023-03-25T07:57:02;100079.25;;;9.40;86.29
43745;BME280;29359;53.048;8.732;2023-03-25T07:59:04;100079.59;;;9.31;87.10
43745;BME280;29359;53.048;8.732;2023-03-25T08:01:06;100082.66;;;9.19;87.45
43745;BME280;29359;53.048;8.732;2023-03-25T08:03:10;100085.78;;;9.03;88.13
43745;BME280;29359;53.048;8.732;2023-03-25T08:05:12;100088.13;;;8.86;89.27
43745;BME280;29359;53.048;8.732;2023-03-25T08:07:22;100097.44;;;8.70;89.32
43745;BME280;29359;53.048;8.732;2023-03-25T08:09:23;100097.34;;;8.45;89.34
43745;BME280;29359;53.048;8.732;2023-03-25T08:11:25;100090.03;;;8.25;89.68
43745;BME280;29359;53.048;8.732;2023-03-25T08:13:26;100087.81;;;8.11;90.78
43745;BME280;29359;53.048;8.732;2023-03-25T08:15:28;100084.50;;;8.05;91.70
43745;BME280;29359;53.048;8.732;2023-03-25T08:17:30;100090.94;;;7.95;91.77
43745;BME280;29359;53.048;8.732;2023-03-25T08:19:32;100092.94;;;7.86;92.38
43745;BME280;29359;53.048;8.732;2023-03-25T08:21:33;100094.84;;;7.80;93.18
43745;BME280;29359;53.048;8.732;2023-03-25T08:23:35;100100.28;;;7.74;94.03
43745;BME280;29359;53.048;8.732;2023-03-25T08:25:39;100102.09;;;7.72;93.45
43745;BME280;29359;53.048;8.732;2023-03-25T08:27:41;100088.31;;;7.64;93.89
43745;BME280;29359;53.048;8.732;2023-03-25T08:29:44;100086.63;;;7.61;94.06
43745;BME280;29359;53.048;8.732;2023-03-25T08:31:47;100086.72;;;7.58;93.94
43745;BME280;29359;53.048;8.732;2023-03-25T08:33:52;100100.59;;;7.63;94.07
43745;BME280;29359;53.048;8.732;2023-03-25T08:35:56;100096.19;;;7.64;94.02
43745;BME280;29359;53.048;8.732;2023-03-25T08:37:58;100100.59;;;7.63;93.33
43745;BME280;29359;53.048;8.732;2023-03-25T08:40:02;100094.47;;;7.63;93.63
43745;BME280;29359;53.048;8.732;2023-03-25T08:42:08;100103.31;;;7.60;93.62
43745;BME280;29359;53.048;8.732;2023-03-25T08:44:10;100097.09;;;7.63;93.85
43745;BME280;29359;53.048;8.732;2023-03-25T08:46:12;100102.09;;;7.72;94.35
43745;BME280;29359;53.048;8.732;2023-03-25T08:48:14;100090.31;;;7.86;95.37
43745;BME280;29359;53.048;8.732;2023-03-25T08:50:15;100093.56;;;7.95;95.17
43745;BME280;29359;53.048;8.732;2023-03-25T08:52:17;100089.66;;;8.08;95.79
43745;BME280;29359;53.048;8.732;2023-03-25T08:54:18;100086.66;;;8.20;95.28
43745;BME280;29359;53.048;8.732;2023-03-25T08:56:20;100079.34;;;8.31;94.61
43745;BME280;29359;53.048;8.732;2023-03-25T08:58:23;100079.13;;;8.39;94.32
43745;BME280;29359;53.048;8.732;2023-03-25T09:00:25;100078.81;;;8.48;92.47
43745;BME280;29359;53.048;8.732;2023-03-25T09:02:27;100078.47;;;8.59;92.59
43745;BME280;29359;53.048;8.732;2023-03-25T09:04:29;100077.25;;;8.70;91.06
43745;BME280;29359;53.048;8.732;2023-03-25T09:06:31;100082.25;;;8.78;90.34
43745;BME280;29359;53.048;8.732;2023-03-25T09:08:48;100080.94;;;8.91;90.24
43745;BME280;29359;53.048;8.732;2023-03-25T09:10:50;100077.84;;;9.05;89.63
43745;BME280;29359;53.048;8.732;2023-03-25T09:12:55;100088.84;;;9.18;88.91
43745;BME280;29359;53.048;8.732;2023-03-25T09:14:57;100087.44;;;9.32;88.37
43745;BME280;29359;53.048;8.732;2023-03-25T09:16:58;100080.06;;;9.42;87.66
43745;BME280;29359;53.048;8.732;2023-03-25T09:19:00;100082.47;;;9.48;86.17
43745;BME280;29359;53.048;8.732;2023-03-25T09:21:03;100082.28;;;9.54;86.20
43745;BME280;29359;53.048;8.732;2023-03-25T09:23:04;100077.03;;;9.54;84.84
43745;BME280;29359;53.048;8.732;2023-03-25T09:25:06;100072.81;;;9.49;84.57
43745;BME280;29359;53.048;8.732;2023-03-25T09:27:08;100074.63;;;9.47;85.14
43745;BME280;29359;53.048;8.732;2023-03-25T09:29:09;100073.88;;;9.43;84.45
43745;BME280;29359;53.048;8.732;2023-03-25T09:31:11;100076.41;;;9.46;85.19
43745;BME280;29359;53.048;8.732;2023-03-25T09:33:13;100071.88;;;9.50;85.16
43745;BME280;29359;53.048;8.732;2023-03-25T09:35:14;100077.97;;;9.52;84.49
43745;BME280;29359;53.048;8.732;2023-03-25T09:37:16;100072.63;;;9.53;84.40
43745;BME280;29359;53.048;8.732;2023-03-25T09:39:18;100073.47;;;9.55;84.61
43745;BME280;29359;53.048;8.732;2023-03-25T09:45:57;100070.78;;;9.57;84.91
43745;BME280;29359;53.048;8.732;2023-03-25T09:48:04;100066.13;;;9.63;86.30
43745;BME280;29359;53.048;8.732;2023-03-25T09:50:13;100063.84;;;9.77;85.21
43745;BME280;29359;53.048;8.732;2023-03-25T09:52:21;100057.13;;;9.92;85.32
43745;BME280;29359;53.048;8.732;2023-03-25T09:54:25;100063.06;;;9.99;85.00
43745;BME280;29359;53.048;8.732;2023-03-25T09:56:33;100053.38;;;9.99;83.48
43745;BME280;29359;53.048;8.732;2023-03-25T09:58:47;100045.34;;;10.02;84.00
43745;BME280;29359;53.048;8.732;2023-03-25T10:08:23;100059.50;;;9.76;84.36
43745;BME280;29359;53.048;8.732;2023-03-25T10:17:42;100065.56;;;9.30;87.50
43745;BME280;29359;53.048;8.732;2023-03-25T10:22:33;100067.88;;;9.15;89.33
43745;BME280;29359;53.048;8.732;2023-03-25T10:24:54;100077.69;;;9.09;90.13
43745;BME280;29359;53.048;8.732;2023-03-25T10:27:28;100073.25;;;9.11;90.70
43745;BME280;29359;53.048;8.732;2023-03-25T10:29:42;100092.44;;;9.15;91.21
43745;BME280;29359;53.048;8.732;2023-03-25T10:31:52;100088.09;;;9.14;91.00
43745;BME280;29359;53.048;8.732;2023-03-25T10:33:57;100090.78;;;9.12;92.33
43745;BME280;29359;53.048;8.732;2023-03-25T10:36:03;100097.69;;;9.15;93.75
43745;BME280;29359;53.048;8.732;2023-03-25T10:38:16;100087.38;;;9.34;93.93
43745;BME280;29359;53.048;8.732;2023-03-25T10:40:23;100087.91;;;9.43;93.94
43745;BME280;29359;53.048;8.732;2023-03-25T10:42:32;100076.97;;;9.56;92.95
43745;BME280;29359;53.048;8.732;2023-03-25T10:44:35;100078.22;;;9.69;92.34
43745;BME280;29359;53.048;8.732;2023-03-25T10:46:47;100086.53;;;9.82;90.96
43745;BME280;29359;53.048;8.732;2023-03-25T10:48:51;100065.97;;;9.91;87.95
43745;BME280;29359;53.048;8.732;2023-03-25T10:51:08;100061.97;;;10.04;85.73
43745;BME280;29359;53.048;8.732;2023-03-25T10:53:24;100069.75;;;10.31;84.51
43745;BME280;29359;53.048;8.732;2023-03-25T10:55:30;100078.56;;;10.53;83.20
43745;BME280;29359;53.048;8.732;2023-03-25T10:57:35;100074.19;;;10.74;82.31
43745;BME280;29359;53.048;8.732;2023-03-25T11:02:14;100069.63;;;10.99;79.10
43745;BME280;29359;53.048;8.732;2023-03-25T11:04:19;100071.22;;;11.04;78.55
43745;BME280;29359;53.048;8.732;2023-03-25T11:06:27;100070.63;;;10.97;77.40
43745;BME280;29359;53.048;8.732;2023-03-25T11:08:30;100066.50;;;10.90;76.57
43745;BME280;29359;53.048;8.732;2023-03-25T11:10:31;100074.72;;;11.04;77.95
43745;BME280;29359;53.048;8.732;2023-03-25T11:12:34;100070.41;;;11.22;76.78
43745;BME280;29359;53.048;8.732;2023-03-25T11:14:43;100065.00;;;11.25;75.40
43745;BME280;29359;53.048;8.732;2023-03-25T11:16:47;100061.84;;;11.17;74.38
43745;BME280;29359;53.048;8.732;2023-03-25T11:18:50;100066.53;;;11.10;75.55
43745;BME280;29359;53.048;8.732;2023-03-25T11:21:00;100056.28;;;11.02;76.02
43745;BME280;29359;53.048;8.732;2023-03-25T11:23:16;100076.16;;;11.11;76.81
43745;BME280;29359;53.048;8.732;2023-03-25T11:25:25;100078.91;;;11.30;75.31
43745;BME280;29359;53.048;8.732;2023-03-25T11:27:44;100074.47;;;11.30;74.82
43745;BME280;29359;53.048;8.732;2023-03-25T11:29:55;100048.28;;;11.24;74.96
43745;BME280;29359;53.048;8.732;2023-03-25T11:32:31;100059.78;;;11.23;74.77
43745;BME280;29359;53.048;8.732;2023-03-25T11:34:36;100050.09;;;11.44;75.48
43745;BME280;29359;53.048;8.732;2023-03-25T11:39:13;100055.34;;;11.85;71.88
43745;BME280;29359;53.048;8.732;2023-03-25T11:41:16;100051.34;;;12.14;72.16
43745;BME280;29359;53.048;8.732;2023-03-25T11:43:20;100054.06;;;12.12;71.08
43745;BME280;29359;53.048;8.732;2023-03-25T11:45:35;100063.78;;;11.93;71.20
43745;BME280;29359;53.048;8.732;2023-03-25T11:47:40;100060.78;;;11.82;71.54
43745;BME280;29359;53.048;8.732;2023-03-25T11:49:46;100067.06;;;11.79;71.92
43745;BME280;29359;53.048;8.732;2023-03-25T11:51:56;100074.50;;;11.70;71.68
43745;BME280;29359;53.048;8.732;2023-03-25T11:53:58;100067.44;;;11.50;72.32
43745;BME280;29359;53.048;8.732;2023-03-25T11:56:05;100059.88;;;11.42;73.33
43745;BME280;29359;53.048;8.732;2023-03-25T11:58:14;100071.22;;;11.44;72.73
43745;BME280;29359;53.048;8.732;2023-03-25T12:02:28;100071.19;;;11.64;73.74
43745;BME280;29359;53.048;8.732;2023-03-25T12:04:31;100085.75;;;11.54;73.49